sensor_id;sensor_type;location;lat;lon;timestamp;P1;durP1;ratioP1;P2;durP2;ratioP2
8708;SDS011;4391;48.678;9.280;2023-03-12T00:01:08;10.93;;;3.83;;
8708;SDS011;4391;48.678;9.280;2023-03-12T00:03:36;10.18;;;3.70;;
8708;SDS011;4391;48.678;9.280;2023-03-12T00:06:04;10.98;;;4.07;;
8708;SDS011;4391;48.678;9.280;2023-03-12T00:08:32;19.08;;;4.47;;
8708;SDS011;4391;48.678;9.280;2023-03-12T00:10:59;11.27;;;3.63;;
8708;SDS011;4391;48.678;9.280;2023-03-12T00:13:27;10.98;;;3.97;;
8708;SDS011;4391;48.678;9.280;2023-03-12T00:15:54;9.73;;;3.80;;
8708;SDS011;4391;48.678;9.280;2023-03-12T00:18:21;11.82;;;3.55;;
8708;SDS011;4391;48.678;9.280;2023-03-12T00:20:52;10.77;;;4.03;;
8708;SDS011;4391;48.678;9.280;2023-03-12T00:23:19;13.13;;;4.07;;
8708;SDS011;4391;48.678;9.280;2023-03-12T00:25:46;13.90;;;4.30;;
8708;SDS011;4391;48.678;9.280;2023-03-12T00:28:12;10.27;;;3.75;;
8708;SDS011;4391;48.678;9.280;2023-03-12T00:30:41;15.57;;;4.10;;
8708;SDS011;4391;48.678;9.280;2023-03-12T00:33:07;10.05;;;3.85;;
8708;SDS011;4391;48.678;9.280;2023-03-12T00:35:36;12.43;;;4.03;;
8708;SDS011;4391;48.678;9.280;2023-03-12T00:38:03;12.07;;;4.32;;
8708;SDS011;4391;48.678;9.280;2023-03-12T00:40:30;12.00;;;4.43;;
8708;SDS011;4391;48.678;9.280;2023-03-12T00:42:56;9.52;;;4.55;;
8708;SDS011;4391;48.678;9.280;2023-03-12T00:45:23;13.48;;;4.22;;
8708;SDS011;4391;48.678;9.280;2023-03-12T00:47:51;10.43;;;4.53;;
8708;SDS011;4391;48.678;9.280;2023-03-12T00:50:18;12.20;;;4.47;;
8708;SDS011;4391;48.678;9.280;2023-03-12T00:52:45;9.45;;;3.72;;
8708;SDS011;4391;48.678;9.280;2023-03-12T00:55:12;11.52;;;5.35;;
8708;SDS011;4391;48.678;9.280;2023-03-12T00:57:39;14.15;;;5.15;;
8708;SDS011;4391;48.678;9.280;2023-03-12T01:00:06;12.47;;;5.20;;
8708;SDS011;4391;48.678;9.280;2023-03-12T01:02:34;13.75;;;5.95;;
8708;SDS011;4391;48.678;9.280;2023-03-12T01:05:06;13.82;;;6.00;;
8708;SDS011;4391;48.678;9.280;2023-03-12T01:07:40;15.90;;;5.75;;
8708;SDS011;4391;48.678;9.280;2023-03-12T01:10:08;12.45;;;5.13;;
8708;SDS011;4391;48.678;9.280;2023-03-12T01:12:37;11.07;;;4.53;;
8708;SDS011;4391;48.678;9.280;2023-03-12T01:15:04;10.63;;;4.45;;
8708;SDS011;4391;48.678;9.280;2023-03-12T01:17:31;12.90;;;4.80;;
8708;SDS011;4391;48.678;9.280;2023-03-12T01:19:58;9.90;;;3.95;;
8708;SDS011;4391;48.678;9.280;2023-03-12T01:24:54;15.63;;;5.33;;
8708;SDS011;4391;48.678;9.280;2023-03-12T01:27:21;17.90;;;5.32;;
8708;SDS011;4391;48.678;9.280;2023-03-12T01:29:48;17.77;;;6.28;;
8708;SDS011;4391;48.678;9.280;2023-03-12T01:32:14;15.38;;;5.90;;
8708;SDS011;4391;48.678;9.280;2023-03-12T01:34:42;13.57;;;5.85;;
8708;SDS011;4391;48.678;9.280;2023-03-12T01:37:09;14.70;;;5.30;;
8708;SDS011;4391;48.678;9.280;2023-03-12T01:39:36;14.95;;;4.88;;
8708;SDS011;4391;48.678;9.280;2023-03-12T01:42:04;12.25;;;4.72;;
8708;SDS011;4391;48.678;9.280;2023-03-12T01:44:46;12.13;;;4.88;;
8708;SDS011;4391;48.678;9.280;2023-03-12T01:47:14;16.90;;;5.53;;
8708;SDS011;4391;48.678;9.280;2023-03-12T01:49:41;17.43;;;5.33;;
8708;SDS011;4391;48.678;9.280;2023-03-12T01:52:10;17.25;;;5.03;;
8708;SDS011;4391;48.678;9.280;2023-03-12T01:54:39;14.13;;;5.10;;
8708;SDS011;4391;48.678;9.280;2023-03-12T01:57:11;17.27;;;5.57;;
8708;SDS011;4391;48.678;9.280;2023-03-12T01:59:41;15.20;;;5.18;;
8708;SDS011;4391;48.678;9.280;2023-03-12T02:02:10;15.53;;;5.20;;
8708;SDS011;4391;48.678;9.280;2023-03-12T02:04:38;16.65;;;6.47;;
8708;SDS011;4391;48.678;9.280;2023-03-12T02:07:09;13.23;;;5.68;;
8708;SDS011;4391;48.678;9.280;2023-03-12T02:09:40;13.20;;;6.32;;
8708;SDS011;4391;48.678;9.280;2023-03-12T02:12:12;15.23;;;6.47;;
8708;SDS011;4391;48.678;9.280;2023-03-12T02:14:38;14.03;;;6.03;;
8708;SDS011;4391;48.678;9.280;2023-03-12T02:17:06;13.20;;;5.22;;
8708;SDS011;4391;48.678;9.280;2023-03-12T02:19:37;12.05;;;5.05;;
8708;SDS011;4391;48.678;9.280;2023-03-12T02:22:11;11.32;;;4.85;;
8708;SDS011;4391;48.678;9.280;2023-03-12T02:24:39;9.82;;;4.93;;
8708;SDS011;4391;48.678;9.280;2023-03-12T02:27:12;16.10;;;4.50;;
8708;SDS011;4391;48.678;9.280;2023-03-12T02:29:41;11.27;;;4.30;;
8708;SDS011;4391;48.678;9.280;2023-03-12T02:32:11;10.65;;;4.50;;
8708;SDS011;4391;48.678;9.280;2023-03-12T02:34:43;10.15;;;4.35;;
8708;SDS011;4391;48.678;9.280;2023-03-12T02:37:12;11.13;;;4.60;;
8708;SDS011;4391;48.678;9.280;2023-03-12T02:39:39;10.00;;;4.57;;
8708;SDS011;4391;48.678;9.280;2023-03-12T02:42:07;14.32;;;5.15;;
8708;SDS011;4391;48.678;9.280;2023-03-12T02:44:35;10.88;;;4.68;;
8708;SDS011;4391;48.678;9.280;2023-03-12T02:47:03;12.85;;;4.95;;
8708;SDS011;4391;48.678;9.280;2023-03-12T02:49:31;12.80;;;4.90;;
8708;SDS011;4391;48.678;9.280;2023-03-12T02:52:00;10.67;;;4.77;;
8708;SDS011;4391;48.678;9.280;2023-03-12T02:54:27;19.83;;;4.32;;
8708;SDS011;4391;48.678;9.280;2023-03-12T02:56:55;15.48;;;4.10;;
8708;SDS011;4391;48.678;9.280;2023-03-12T02:59:22;12.20;;;4.28;;
8708;SDS011;4391;48.678;9.280;2023-03-12T03:01:52;11.00;;;4.13;;
8708;SDS011;4391;48.678;9.280;2023-03-12T03:04:19;9.77;;;4.03;;
8708;SDS011;4391;48.678;9.280;2023-03-12T03:06:46;12.05;;;3.92;;
8708;SDS011;4391;48.678;9.280;2023-03-12T03:09:13;10.07;;;3.85;;
8708;SDS011;4391;48.678;9.280;2023-03-12T03:11:40;11.32;;;4.60;;
8708;SDS011;4391;48.678;9.280;2023-03-12T03:14:07;10.45;;;3.85;;
8708;SDS011;4391;48.678;9.280;2023-03-12T03:16:34;8.63;;;3.43;;
8708;SDS011;4391;48.678;9.280;2023-03-12T03:19:02;11.07;;;3.85;;
8708;SDS011;4391;48.678;9.280;2023-03-12T03:21:29;11.23;;;3.92;;
8708;SDS011;4391;48.678;9.280;2023-03-12T03:23:57;9.10;;;3.88;;
8708;SDS011;4391;48.678;9.280;2023-03-12T03:26:24;10.48;;;3.88;;
8708;SDS011;4391;48.678;9.280;2023-03-12T03:28:51;10.97;;;3.90;;
8708;SDS011;4391;48.678;9.280;2023-03-12T03:31:18;8.50;;;3.63;;
8708;SDS011;4391;48.678;9.280;2023-03-12T03:33:45;12.65;;;4.88;;
8708;SDS011;4391;48.678;9.280;2023-03-12T03:36:14;11.77;;;3.88;;
8708;SDS011;4391;48.678;9.280;2023-03-12T03:38:41;11.88;;;4.45;;
8708;SDS011;4391;48.678;9.280;2023-03-12T03:41:13;10.97;;;4.53;;
8708;SDS011;4391;48.678;9.280;2023-03-12T03:43:40;11.73;;;4.95;;
8708;SDS011;4391;48.678;9.280;2023-03-12T03:46:07;12.90;;;4.90;;
8708;SDS011;4391;48.678;9.280;2023-03-12T03:48:35;15.35;;;4.72;;
8708;SDS011;4391;48.678;9.280;2023-03-12T03:51:03;10.05;;;4.13;;
8708;SDS011;4391;48.678;9.280;2023-03-12T03:53:32;10.23;;;4.10;;
8708;SDS011;4391;48.678;9.280;2023-03-12T03:56:03;9.05;;;3.70;;
8708;SDS011;4391;48.678;9.280;2023-03-12T03:58:31;10.98;;;3.92;;
8708;SDS011;4391;48.678;9.280;2023-03-12T04:00:58;8.75;;;4.00;;
8708;SDS011;4391;48.678;9.280;2023-03-12T04:03:24;11.60;;;3.95;;
8708;SDS011;4391;48.678;9.280;2023-03-12T04:05:55;13.87;;;5.03;;
8708;SDS011;4391;48.678;9.280;2023-03-12T04:08:22;12.70;;;4.20;;
8708;SDS011;4391;48.678;9.280;2023-03-12T04:10:50;14.02;;;4.00;;
8708;SDS011;4391;48.678;9.280;2023-03-12T04:13:18;9.82;;;4.13;;
8708;SDS011;4391;48.678;9.280;2023-03-12T04:15:45;10.82;;;4.18;;
8708;SDS011;4391;48.678;9.280;2023-03-12T04:18:12;11.00;;;3.80;;
8708;SDS011;4391;48.678;9.280;2023-03-12T04:20:39;10.38;;;4.00;;
8708;SDS011;4391;48.678;9.280;2023-03-12T04:23:06;9.90;;;3.78;;
8708;SDS011;4391;48.678;9.280;2023-03-12T04:25:33;9.77;;;3.63;;
8708;SDS011;4391;48.678;9.280;2023-03-12T04:28:02;9.27;;;4.03;;
8708;SDS011;4391;48.678;9.280;2023-03-12T04:30:29;8.93;;;3.90;;
8708;SDS011;4391;48.678;9.280;2023-03-12T04:32:57;8.75;;;3.95;;
8708;SDS011;4391;48.678;9.280;2023-03-12T04:35:23;9.45;;;3.53;;
8708;SDS011;4391;48.678;9.280;2023-03-12T04:37:50;9.05;;;4.07;;
8708;SDS011;4391;48.678;9.280;2023-03-12T04:40:17;7.97;;;3.60;;
8708;SDS011;4391;48.678;9.280;2023-03-12T04:42:44;10.60;;;3.70;;
8708;SDS011;4391;48.678;9.280;2023-03-12T04:45:13;8.90;;;3.63;;
8708;SDS011;4391;48.678;9.280;2023-03-12T04:47:40;9.18;;;3.70;;
8708;SDS011;4391;48.678;9.280;2023-03-12T04:50:07;10.98;;;3.85;;
8708;SDS011;4391;48.678;9.280;2023-03-12T04:52:35;14.93;;;4.15;;
8708;SDS011;4391;48.678;9.280;2023-03-12T04:55:03;7.70;;;3.47;;
8708;SDS011;4391;48.678;9.280;2023-03-12T04:57:30;11.95;;;4.40;;
8708;SDS011;4391;48.678;9.280;2023-03-12T04:59:57;7.47;;;3.75;;
8708;SDS011;4391;48.678;9.280;2023-03-12T05:02:25;10.68;;;4.03;;
8708;SDS011;4391;48.678;9.280;2023-03-12T05:04:54;9.77;;;3.78;;
8708;SDS011;4391;48.678;9.280;2023-03-12T05:07:22;8.67;;;4.20;;
8708;SDS011;4391;48.678;9.280;2023-03-12T05:09:49;10.05;;;4.22;;
8708;SDS011;4391;48.678;9.280;2023-03-12T05:12:15;10.43;;;3.85;;
8708;SDS011;4391;48.678;9.280;2023-03-12T05:14:42;13.50;;;4.63;;
8708;SDS011;4391;48.678;9.280;2023-03-12T05:17:09;13.05;;;4.10;;
8708;SDS011;4391;48.678;9.280;2023-03-12T05:19:37;10.83;;;4.23;;
8708;SDS011;4391;48.678;9.280;2023-03-12T05:22:04;8.50;;;4.00;;
8708;SDS011;4391;48.678;9.280;2023-03-12T05:24:31;8.52;;;3.95;;
8708;SDS011;4391;48.678;9.280;2023-03-12T05:26:57;11.95;;;4.32;;
8708;SDS011;4391;48.678;9.280;2023-03-12T05:29:24;12.40;;;4.47;;
8708;SDS011;4391;48.678;9.280;2023-03-12T05:31:51;12.10;;;4.37;;
8708;SDS011;4391;48.678;9.280;2023-03-12T05:34:18;10.85;;;4.32;;
8708;SDS011;4391;48.678;9.280;2023-03-12T05:36:46;9.85;;;3.80;;
8708;SDS011;4391;48.678;9.280;2023-03-12T05:39:13;10.55;;;4.40;;
8708;SDS011;4391;48.678;9.280;2023-03-12T05:41:40;8.88;;;3.63;;
8708;SDS011;4391;48.678;9.280;2023-03-12T05:44:08;8.23;;;4.17;;
8708;SDS011;4391;48.678;9.280;2023-03-12T05:46:37;9.13;;;3.53;;
8708;SDS011;4391;48.678;9.280;2023-03-12T05:49:04;8.68;;;3.80;;
8708;SDS011;4391;48.678;9.280;2023-03-12T05:51:31;12.27;;;4.28;;
8708;SDS011;4391;48.678;9.280;2023-03-12T05:53:59;11.07;;;4.70;;
8708;SDS011;4391;48.678;9.280;2023-03-12T05:56:26;13.50;;;4.27;;
8708;SDS011;4391;48.678;9.280;2023-03-12T05:58:54;9.70;;;4.00;;
8708;SDS011;4391;48.678;9.280;2023-03-12T06:01:22;11.00;;;4.38;;
8708;SDS011;4391;48.678;9.280;2023-03-12T06:03:50;10.93;;;4.03;;
8708;SDS011;4391;48.678;9.280;2023-03-12T06:06:17;13.05;;;4.63;;
8708;SDS011;4391;48.678;9.280;2023-03-12T06:08:44;12.43;;;4.30;;
8708;SDS011;4391;48.678;9.280;2023-03-12T06:11:13;11.85;;;4.40;;
8708;SDS011;4391;48.678;9.280;2023-03-12T06:13:41;11.93;;;4.72;;
8708;SDS011;4391;48.678;9.280;2023-03-12T06:16:08;13.10;;;4.97;;
8708;SDS011;4391;48.678;9.280;2023-03-12T06:18:38;14.63;;;4.60;;
8708;SDS011;4391;48.678;9.280;2023-03-12T06:21:09;10.30;;;4.53;;
8708;SDS011;4391;48.678;9.280;2023-03-12T06:23:37;10.77;;;4.53;;
8708;SDS011;4391;48.678;9.280;2023-03-12T06:26:05;10.68;;;4.90;;
8708;SDS011;4391;48.678;9.280;2023-03-12T06:28:33;11.35;;;4.60;;
8708;SDS011;4391;48.678;9.280;2023-03-12T06:31:01;11.18;;;4.50;;
8708;SDS011;4391;48.678;9.280;2023-03-12T06:33:28;10.37;;;4.77;;
8708;SDS011;4391;48.678;9.280;2023-03-12T06:35:56;13.07;;;5.05;;
8708;SDS011;4391;48.678;9.280;2023-03-12T06:38:25;10.73;;;4.25;;
8708;SDS011;4391;48.678;9.280;2023-03-12T06:40:53;10.95;;;4.95;;
8708;SDS011;4391;48.678;9.280;2023-03-12T06:43:20;10.13;;;4.85;;
8708;SDS011;4391;48.678;9.280;2023-03-12T06:45:49;12.07;;;4.23;;
8708;SDS011;4391;48.678;9.280;2023-03-12T06:48:16;10.23;;;5.03;;
8708;SDS011;4391;48.678;9.280;2023-03-12T06:50:42;10.98;;;5.13;;
8708;SDS011;4391;48.678;9.280;2023-03-12T06:53:09;14.38;;;4.45;;
8708;SDS011;4391;48.678;9.280;2023-03-12T06:55:36;11.45;;;4.10;;
8708;SDS011;4391;48.678;9.280;2023-03-12T06:58:03;10.93;;;4.20;;
8708;SDS011;4391;48.678;9.280;2023-03-12T07:00:30;9.68;;;4.28;;
8708;SDS011;4391;48.678;9.280;2023-03-12T07:03:00;9.80;;;4.72;;
8708;SDS011;4391;48.678;9.280;2023-03-12T07:05:27;8.88;;;4.28;;
8708;SDS011;4391;48.678;9.280;2023-03-12T07:07:54;11.88;;;4.20;;
8708;SDS011;4391;48.678;9.280;2023-03-12T07:10:24;10.77;;;4.20;;
8708;SDS011;4391;48.678;9.280;2023-03-12T07:12:53;9.93;;;4.55;;
8708;SDS011;4391;48.678;9.280;2023-03-12T07:15:20;12.02;;;4.60;;
8708;SDS011;4391;48.678;9.280;2023-03-12T07:17:48;10.23;;;4.07;;
8708;SDS011;4391;48.678;9.280;2023-03-12T07:20:16;14.93;;;4.88;;
8708;SDS011;4391;48.678;9.280;2023-03-12T07:25:16;8.63;;;4.50;;
8708;SDS011;4391;48.678;9.280;2023-03-12T07:27:43;17.70;;;4.28;;
8708;SDS011;4391;48.678;9.280;2023-03-12T07:30:10;12.10;;;4.65;;
8708;SDS011;4391;48.678;9.280;2023-03-12T07:32:37;9.05;;;4.45;;
8708;SDS011;4391;48.678;9.280;2023-03-12T07:35:04;11.70;;;4.40;;
8708;SDS011;4391;48.678;9.280;2023-03-12T07:37:33;11.68;;;4.32;;
8708;SDS011;4391;48.678;9.280;2023-03-12T07:40:00;9.70;;;4.30;;
8708;SDS011;4391;48.678;9.280;2023-03-12T07:42:29;10.23;;;4.13;;
8708;SDS011;4391;48.678;9.280;2023-03-12T07:44:56;10.75;;;4.88;;
8708;SDS011;4391;48.678;9.280;2023-03-12T07:47:23;9.33;;;4.90;;
8708;SDS011;4391;48.678;9.280;2023-03-12T07:49:50;10.70;;;4.47;;
8708;SDS011;4391;48.678;9.280;2023-03-12T07:52:18;9.90;;;4.40;;
8708;SDS011;4391;48.678;9.280;2023-03-12T07:54:46;8.32;;;4.65;;
8708;SDS011;4391;48.678;9.280;2023-03-12T07:57:13;13.93;;;5.45;;
8708;SDS011;4391;48.678;9.280;2023-03-12T07:59:40;10.83;;;5.87;;
8708;SDS011;4391;48.678;9.280;2023-03-12T08:02:08;11.48;;;6.00;;
8708;SDS011;4391;48.678;9.280;2023-03-12T08:04:35;13.45;;;5.28;;
8708;SDS011;4391;48.678;9.280;2023-03-12T08:07:02;11.73;;;5.03;;
8708;SDS011;4391;48.678;9.280;2023-03-12T08:09:29;9.77;;;5.70;;
8708;SDS011;4391;48.678;9.280;2023-03-12T08:11:57;11.23;;;4.90;;
8708;SDS011;4391;48.678;9.280;2023-03-12T08:14:24;12.77;;;4.63;;
8708;SDS011;4391;48.678;9.280;2023-03-12T08:16:55;15.43;;;5.53;;
8708;SDS011;4391;48.678;9.280;2023-03-12T08:19:22;15.68;;;5.70;;
8708;SDS011;4391;48.678;9.280;2023-03-12T08:21:49;14.95;;;6.38;;
8708;SDS011;4391;48.678;9.280;2023-03-12T08:24:17;14.90;;;6.13;;
8708;SDS011;4391;48.678;9.280;2023-03-12T08:26:44;14.55;;;6.72;;
8708;SDS011;4391;48.678;9.280;2023-03-12T08:29:13;13.65;;;5.90;;
8708;SDS011;4391;48.678;9.280;2023-03-12T08:31:40;14.75;;;6.45;;
8708;SDS011;4391;48.678;9.280;2023-03-12T08:34:07;10.73;;;5.43;;
8708;SDS011;4391;48.678;9.280;2023-03-12T08:36:33;11.00;;;4.90;;
8708;SDS011;4391;48.678;9.280;2023-03-12T08:39:01;10.70;;;4.53;;
8708;SDS011;4391;48.678;9.280;2023-03-12T08:41:28;10.07;;;4.63;;
8708;SDS011;4391;48.678;9.280;2023-03-12T08:43:55;11.20;;;4.72;;
8708;SDS011;4391;48.678;9.280;2023-03-12T08:46:23;12.90;;;5.45;;
8708;SDS011;4391;48.678;9.280;2023-03-12T08:48:50;13.20;;;4.90;;
8708;SDS011;4391;48.678;9.280;2023-03-12T08:51:17;10.93;;;4.63;;
8708;SDS011;4391;48.678;9.280;2023-03-12T08:53:44;11.30;;;5.05;;
8708;SDS011;4391;48.678;9.280;2023-03-12T08:56:10;12.40;;;5.40;;
8708;SDS011;4391;48.678;9.280;2023-03-12T08:58:37;9.70;;;5.05;;
8708;SDS011;4391;48.678;9.280;2023-03-12T09:01:07;12.50;;;4.73;;
8708;SDS011;4391;48.678;9.280;2023-03-12T09:03:36;11.05;;;4.95;;
8708;SDS011;4391;48.678;9.280;2023-03-12T09:06:06;9.63;;;4.88;;
8708;SDS011;4391;48.678;9.280;2023-03-12T09:08:37;11.10;;;5.18;;
8708;SDS011;4391;48.678;9.280;2023-03-12T09:11:04;9.98;;;4.78;;
8708;SDS011;4391;48.678;9.280;2023-03-12T09:13:31;12.50;;;5.63;;
8708;SDS011;4391;48.678;9.280;2023-03-12T09:15:58;12.18;;;5.47;;
8708;SDS011;4391;48.678;9.280;2023-03-12T09:18:26;10.93;;;5.35;;
8708;SDS011;4391;48.678;9.280;2023-03-12T09:20:54;10.50;;;4.28;;
8708;SDS011;4391;48.678;9.280;2023-03-12T09:23:22;11.95;;;4.70;;
8708;SDS011;4391;48.678;9.280;2023-03-12T09:25:49;12.93;;;4.40;;
8708;SDS011;4391;48.678;9.280;2023-03-12T09:28:16;10.02;;;4.40;;
8708;SDS011;4391;48.678;9.280;2023-03-12T09:30:43;9.88;;;4.85;;
8708;SDS011;4391;48.678;9.280;2023-03-12T09:33:10;9.02;;;4.10;;
8708;SDS011;4391;48.678;9.280;2023-03-12T09:35:39;9.40;;;4.22;;
8708;SDS011;4391;48.678;9.280;2023-03-12T09:38:08;9.07;;;3.70;;
8708;SDS011;4391;48.678;9.280;2023-03-12T09:40:38;9.20;;;4.03;;
8708;SDS011;4391;48.678;9.280;2023-03-12T09:43:06;7.20;;;3.97;;
8708;SDS011;4391;48.678;9.280;2023-03-12T09:45:41;8.00;;;3.95;;
8708;SDS011;4391;48.678;9.280;2023-03-12T09:48:12;7.30;;;3.55;;
8708;SDS011;4391;48.678;9.280;2023-03-12T09:50:42;8.93;;;4.00;;
8708;SDS011;4391;48.678;9.280;2023-03-12T09:53:15;9.07;;;3.50;;
8708;SDS011;4391;48.678;9.280;2023-03-12T09:55:51;11.43;;;3.58;;
8708;SDS011;4391;48.678;9.280;2023-03-12T09:58:21;9.60;;;3.83;;
8708;SDS011;4391;48.678;9.280;2023-03-12T10:00:54;10.73;;;4.13;;
8708;SDS011;4391;48.678;9.280;2023-03-12T10:03:34;7.33;;;4.00;;
8708;SDS011;4391;48.678;9.280;2023-03-12T10:06:22;10.57;;;3.70;;
8708;SDS011;4391;48.678;9.280;2023-03-12T10:08:57;8.48;;;4.22;;
8708;SDS011;4391;48.678;9.280;2023-03-12T10:11:35;8.48;;;4.43;;
8708;SDS011;4391;48.678;9.280;2023-03-12T10:14:15;10.50;;;3.92;;
8708;SDS011;4391;48.678;9.280;2023-03-12T10:16:53;8.67;;;4.03;;
8708;SDS011;4391;48.678;9.280;2023-03-12T10:19:34;9.75;;;4.15;;
8708;SDS011;4391;48.678;9.280;2023-03-12T10:22:14;9.48;;;4.05;;
8708;SDS011;4391;48.678;9.280;2023-03-12T10:24:50;8.20;;;4.22;;
8708;SDS011;4391;48.678;9.280;2023-03-12T10:27:26;9.27;;;3.80;;
8708;SDS011;4391;48.678;9.280;2023-03-12T10:29:55;5.47;;;2.33;;
8708;SDS011;4391;48.678;9.280;2023-03-12T10:32:24;5.80;;;2.20;;
8708;SDS011;4391;48.678;9.280;2023-03-12T10:34:55;6.00;;;2.13;;
8708;SDS011;4391;48.678;9.280;2023-03-12T10:37:27;3.95;;;1.80;;
8708;SDS011;4391;48.678;9.280;2023-03-12T10:39:58;4.90;;;1.95;;
8708;SDS011;4391;48.678;9.280;2023-03-12T10:42:26;5.20;;;1.93;;
8708;SDS011;4391;48.678;9.280;2023-03-12T10:44:55;4.60;;;1.50;;
8708;SDS011;4391;48.678;9.280;2023-03-12T10:47:31;6.68;;;1.70;;
8708;SDS011;4391;48.678;9.280;2023-03-12T10:52:44;3.00;;;1.02;;
8708;SDS011;4391;48.678;9.280;2023-03-12T10:55:18;4.97;;;1.57;;
8708;SDS011;4391;48.678;9.280;2023-03-12T10:57:47;3.05;;;1.13;;
8708;SDS011;4391;48.678;9.280;2023-03-12T11:00:19;3.85;;;1.30;;
8708;SDS011;4391;48.678;9.280;2023-03-12T11:02:54;3.90;;;1.10;;
8708;SDS011;4391;48.678;9.280;2023-03-12T11:05:24;3.33;;;1.05;;
8708;SDS011;4391;48.678;9.280;2023-03-12T11:07:53;2.67;;;0.90;;
8708;SDS011;4391;48.678;9.280;2023-03-12T11:10:24;2.55;;;0.77;;
8708;SDS011;4391;48.678;9.280;2023-03-12T11:12:59;3.47;;;1.00;;
8708;SDS011;4391;48.678;9.280;2023-03-12T11:15:29;2.95;;;0.75;;
8708;SDS011;4391;48.678;9.280;2023-03-12T11:18:16;2.33;;;0.90;;
8708;SDS011;4391;48.678;9.280;2023-03-12T11:20:45;2.17;;;0.50;;
8708;SDS011;4391;48.678;9.280;2023-03-12T11:23:14;2.60;;;0.70;;
8708;SDS011;4391;48.678;9.280;2023-03-12T11:25:44;1.50;;;0.40;;
8708;SDS011;4391;48.678;9.280;2023-03-12T11:28:19;1.90;;;0.60;;
8708;SDS011;4391;48.678;9.280;2023-03-12T11:30:48;2.45;;;0.47;;
8708;SDS011;4391;48.678;9.280;2023-03-12T11:33:17;3.00;;;0.50;;
8708;SDS011;4391;48.678;9.280;2023-03-12T11:35:45;1.85;;;0.60;;
8708;SDS011;4391;48.678;9.280;2023-03-12T11:38:20;7.57;;;0.93;;
8708;SDS011;4391;48.678;9.280;2023-03-12T11:40:59;2.03;;;0.60;;
8708;SDS011;4391;48.678;9.280;2023-03-12T11:43:40;2.83;;;0.50;;
8708;SDS011;4391;48.678;9.280;2023-03-12T11:46:21;2.83;;;0.50;;
8708;SDS011;4391;48.678;9.280;2023-03-12T11:49:01;2.03;;;0.45;;
8708;SDS011;4391;48.678;9.280;2023-03-12T11:51:36;3.53;;;0.68;;
8708;SDS011;4391;48.678;9.280;2023-03-12T11:57:12;2.80;;;0.60;;
8708;SDS011;4391;48.678;9.280;2023-03-12T11:59:44;1.53;;;0.60;;
8708;SDS011;4391;48.678;9.280;2023-03-12T12:02:23;2.35;;;0.50;;
8708;SDS011;4391;48.678;9.280;2023-03-12T12:05:05;3.22;;;0.50;;
8708;SDS011;4391;48.678;9.280;2023-03-12T12:07:48;3.13;;;0.50;;
8708;SDS011;4391;48.678;9.280;2023-03-12T12:10:34;2.58;;;0.60;;
8708;SDS011;4391;48.678;9.280;2023-03-12T12:13:12;2.60;;;0.70;;
8708;SDS011;4391;48.678;9.280;2023-03-12T12:15:49;3.20;;;0.50;;
8708;SDS011;4391;48.678;9.280;2023-03-12T12:18:32;4.38;;;0.70;;
8708;SDS011;4391;48.678;9.280;2023-03-12T12:21:19;4.82;;;0.63;;
8708;SDS011;4391;48.678;9.280;2023-03-12T12:24:00;2.30;;;0.60;;
8708;SDS011;4391;48.678;9.280;2023-03-12T12:26:36;3.47;;;0.70;;
8708;SDS011;4391;48.678;9.280;2023-03-12T12:29:15;2.90;;;0.77;;
8708;SDS011;4391;48.678;9.280;2023-03-12T12:31:53;6.10;;;0.90;;
8708;SDS011;4391;48.678;9.280;2023-03-12T12:37:26;3.80;;;0.90;;
8708;SDS011;4391;48.678;9.280;2023-03-12T12:40:04;4.47;;;0.80;;
8708;SDS011;4391;48.678;9.280;2023-03-12T12:42:44;2.63;;;0.55;;
8708;SDS011;4391;48.678;9.280;2023-03-12T12:45:27;7.57;;;0.85;;
8708;SDS011;4391;48.678;9.280;2023-03-12T12:47:56;4.47;;;0.95;;
8708;SDS011;4391;48.678;9.280;2023-03-12T12:50:28;3.13;;;0.80;;
8708;SDS011;4391;48.678;9.280;2023-03-12T12:53:02;3.93;;;0.77;;
8708;SDS011;4391;48.678;9.280;2023-03-12T12:55:39;3.42;;;0.90;;
8708;SDS011;4391;48.678;9.280;2023-03-12T12:58:16;9.48;;;1.40;;
8708;SDS011;4391;48.678;9.280;2023-03-12T13:00:49;3.35;;;0.90;;
8708;SDS011;4391;48.678;9.280;2023-03-12T13:03:19;6.10;;;0.90;;
8708;SDS011;4391;48.678;9.280;2023-03-12T13:05:55;4.70;;;0.90;;
8708;SDS011;4391;48.678;9.280;2023-03-12T13:11:26;4.75;;;0.98;;
8708;SDS011;4391;48.678;9.280;2023-03-12T13:14:13;4.15;;;0.95;;
8708;SDS011;4391;48.678;9.280;2023-03-12T13:17:06;5.35;;;0.93;;
8708;SDS011;4391;48.678;9.280;2023-03-12T13:19:52;6.93;;;0.80;;
8708;SDS011;4391;48.678;9.280;2023-03-12T13:22:25;3.25;;;0.70;;
8708;SDS011;4391;48.678;9.280;2023-03-12T13:25:08;4.13;;;0.80;;
8708;SDS011;4391;48.678;9.280;2023-03-12T13:27:46;4.60;;;0.90;;
8708;SDS011;4391;48.678;9.280;2023-03-12T13:33:16;4.53;;;0.70;;
8708;SDS011;4391;48.678;9.280;2023-03-12T13:36:02;2.85;;;0.60;;
8708;SDS011;4391;48.678;9.280;2023-03-12T13:38:35;3.42;;;0.80;;
8708;SDS011;4391;48.678;9.280;2023-03-12T13:41:04;6.40;;;0.90;;
8708;SDS011;4391;48.678;9.280;2023-03-12T13:46:25;4.53;;;0.83;;
8708;SDS011;4391;48.678;9.280;2023-03-12T13:49:04;4.93;;;0.70;;
8708;SDS011;4391;48.678;9.280;2023-03-12T13:51:41;1.95;;;0.70;;
8708;SDS011;4391;48.678;9.280;2023-03-12T13:54:12;3.05;;;0.60;;
8708;SDS011;4391;48.678;9.280;2023-03-12T13:56:52;4.75;;;0.70;;
8708;SDS011;4391;48.678;9.280;2023-03-12T13:59:22;7.63;;;0.93;;
8708;SDS011;4391;48.678;9.280;2023-03-12T14:01:55;4.75;;;1.00;;
8708;SDS011;4391;48.678;9.280;2023-03-12T14:04:27;3.17;;;0.68;;
8708;SDS011;4391;48.678;9.280;2023-03-12T14:07:02;5.90;;;0.70;;
8708;SDS011;4391;48.678;9.280;2023-03-12T14:09:42;4.53;;;0.98;;
8708;SDS011;4391;48.678;9.280;2023-03-12T14:12:19;4.50;;;0.90;;
8708;SDS011;4391;48.678;9.280;2023-03-12T14:15:01;2.47;;;0.52;;
8708;SDS011;4391;48.678;9.280;2023-03-12T14:17:33;3.60;;;0.70;;
8708;SDS011;4391;48.678;9.280;2023-03-12T14:20:09;4.05;;;0.70;;
8708;SDS011;4391;48.678;9.280;2023-03-12T14:22:40;3.25;;;0.77;;
8708;SDS011;4391;48.678;9.280;2023-03-12T14:25:11;3.10;;;0.70;;
8708;SDS011;4391;48.678;9.280;2023-03-12T14:27:41;2.88;;;0.57;;
8708;SDS011;4391;48.678;9.280;2023-03-12T14:30:11;3.78;;;0.70;;
8708;SDS011;4391;48.678;9.280;2023-03-12T14:32:45;5.13;;;0.95;;
8708;SDS011;4391;48.678;9.280;2023-03-12T14:35:15;6.82;;;0.90;;
8708;SDS011;4391;48.678;9.280;2023-03-12T14:37:45;4.80;;;0.90;;
8708;SDS011;4391;48.678;9.280;2023-03-12T14:40:19;3.50;;;0.80;;
8708;SDS011;4391;48.678;9.280;2023-03-12T14:42:49;4.28;;;0.70;;
8708;SDS011;4391;48.678;9.280;2023-03-12T14:45:17;2.83;;;0.50;;
8708;SDS011;4391;48.678;9.280;2023-03-12T14:47:48;4.32;;;0.65;;
8708;SDS011;4391;48.678;9.280;2023-03-12T14:50:21;3.90;;;1.00;;
8708;SDS011;4391;48.678;9.280;2023-03-12T14:52:49;5.63;;;1.10;;
8708;SDS011;4391;48.678;9.280;2023-03-12T14:55:18;4.90;;;0.77;;
8708;SDS011;4391;48.678;9.280;2023-03-12T14:57:47;4.00;;;1.10;;
8708;SDS011;4391;48.678;9.280;2023-03-12T15:00:27;3.22;;;0.70;;
8708;SDS011;4391;48.678;9.280;2023-03-12T15:02:54;5.00;;;0.80;;
8708;SDS011;4391;48.678;9.280;2023-03-12T15:05:25;4.55;;;0.90;;
8708;SDS011;4391;48.678;9.280;2023-03-12T15:07:53;6.72;;;1.30;;
8708;SDS011;4391;48.678;9.280;2023-03-12T15:10:27;10.50;;;2.15;;
8708;SDS011;4391;48.678;9.280;2023-03-12T15:12:55;5.32;;;1.38;;
8708;SDS011;4391;48.678;9.280;2023-03-12T15:15:29;4.57;;;0.70;;
8708;SDS011;4391;48.678;9.280;2023-03-12T15:18:03;4.50;;;0.77;;
8708;SDS011;4391;48.678;9.280;2023-03-12T15:20:40;6.53;;;1.40;;
8708;SDS011;4391;48.678;9.280;2023-03-12T15:23:12;7.93;;;1.08;;
8708;SDS011;4391;48.678;9.280;2023-03-12T15:25:40;7.38;;;0.98;;
8708;SDS011;4391;48.678;9.280;2023-03-12T15:28:23;10.13;;;1.30;;
8708;SDS011;4391;48.678;9.280;2023-03-12T15:31:03;5.65;;;1.33;;
8708;SDS011;4391;48.678;9.280;2023-03-12T15:33:31;5.88;;;1.00;;
8708;SDS011;4391;48.678;9.280;2023-03-12T15:36:02;4.43;;;1.00;;
8708;SDS011;4391;48.678;9.280;2023-03-12T15:38:30;7.28;;;1.25;;
8708;SDS011;4391;48.678;9.280;2023-03-12T15:41:05;6.40;;;1.23;;
8708;SDS011;4391;48.678;9.280;2023-03-12T15:43:34;6.10;;;0.95;;
8708;SDS011;4391;48.678;9.280;2023-03-12T15:46:02;4.95;;;1.00;;
8708;SDS011;4391;48.678;9.280;2023-03-12T15:48:31;7.70;;;1.20;;